ěÝzenÝ letovÚho provozu ╚eskÚ republiky
Letiste: LKPD Aktualizace: 30.05.2020 01:01:18  UTC
 METAR LKPD 30.05. 01:00 ...
METAR LKPD 300100Z VRB02KT CAVOK 12/06 Q1022 RMK BLU=
 TAF LKPD 29.05. 23:00 ...
TAF LKPD 292300Z 3000/3100 03006KT CAVOK      TEMPO 3010/3016 04010KT=